createdAt,value
2022-11-17T00:01:05.731Z,3.90
2022-11-17T00:03:32.500Z,4.00
2022-11-17T00:06:04.536Z,4.32
2022-11-17T00:08:31.753Z,5.03
2022-11-17T00:11:02.913Z,4.85
2022-11-17T00:13:48.371Z,4.32
2022-11-17T00:16:17.046Z,4.20
2022-11-17T00:19:02.081Z,3.88
2022-11-17T00:21:29.752Z,4.15
2022-11-17T00:23:56.506Z,4.65
2022-11-17T00:26:31.545Z,3.67
2022-11-17T00:29:05.294Z,4.00
2022-11-17T00:31:52.096Z,3.53
2022-11-17T00:34:23.521Z,3.40
2022-11-17T00:36:52.222Z,4.05
2022-11-17T00:39:21.509Z,3.60
2022-11-17T00:41:48.365Z,2.30
2022-11-17T00:44:15.442Z,2.10
2022-11-17T00:46:43.073Z,2.70
2022-11-17T00:49:11.093Z,3.00
2022-11-17T00:51:37.942Z,2.63
2022-11-17T00:54:08.230Z,3.00
2022-11-17T00:56:34.818Z,4.18
2022-11-17T00:59:01.501Z,4.90
2022-11-17T01:01:29.238Z,4.57
2022-11-17T01:04:03.385Z,4.95
2022-11-17T01:06:35.836Z,5.90
2022-11-17T01:09:04.701Z,4.93
2022-11-17T01:11:31.543Z,5.55
2022-11-17T01:14:00.315Z,5.80
2022-11-17T01:16:28.007Z,4.75
2022-11-17T01:18:54.762Z,5.88
2022-11-17T01:21:24.445Z,4.03
2022-11-17T01:23:54.085Z,4.85
2022-11-17T01:26:23.673Z,3.75
2022-11-17T01:28:51.457Z,3.58
2022-11-17T01:31:21.138Z,3.25
2022-11-17T01:33:48.418Z,4.10
2022-11-17T01:36:20.298Z,3.22
2022-11-17T01:38:46.971Z,3.15
2022-11-17T01:41:17.712Z,3.17
2022-11-17T01:43:51.504Z,2.75
2022-11-17T01:46:27.086Z,2.50
2022-11-17T01:48:58.029Z,2.55
2022-11-17T01:51:26.807Z,2.22
2022-11-17T01:53:53.650Z,1.95
2022-11-17T01:56:28.645Z,2.38
2022-11-17T01:59:01.959Z,2.50
2022-11-17T02:01:28.769Z,2.10
2022-11-17T02:03:55.423Z,1.90
2022-11-17T02:06:34.145Z,2.10
2022-11-17T02:09:02.756Z,2.83
2022-11-17T02:11:36.149Z,2.17
2022-11-17T02:14:05.347Z,2.15
2022-11-17T02:16:31.982Z,2.25
2022-11-17T02:18:58.564Z,2.20
2022-11-17T02:21:40.082Z,2.42
2022-11-17T02:24:09.361Z,2.10
2022-11-17T02:27:05.148Z,2.13
2022-11-17T02:29:55.745Z,2.47
2022-11-17T02:32:42.668Z,2.40
2022-11-17T02:35:20.923Z,3.60
2022-11-17T02:38:06.523Z,3.10
2022-11-17T02:40:39.681Z,3.13
2022-11-17T02:43:36.733Z,3.08
2022-11-17T02:46:09.444Z,4.30
2022-11-17T02:48:44.905Z,5.32
2022-11-17T02:51:17.166Z,5.97
2022-11-17T02:53:44.001Z,6.22
2022-11-17T02:56:10.736Z,6.20
2022-11-17T02:58:37.302Z,5.75
2022-11-17T03:01:30.865Z,4.82
2022-11-17T03:04:03.133Z,5.20
2022-11-17T03:06:51.804Z,5.30
2022-11-17T03:09:47.804Z,5.80
2022-11-17T03:12:41.475Z,2.78
2022-11-17T03:15:10.833Z,3.22
2022-11-17T03:17:54.311Z,3.92
2022-11-17T03:23:04.531Z,3.78
2022-11-17T03:25:34.877Z,3.53
2022-11-17T03:28:06.828Z,3.60
2022-11-17T03:30:37.653Z,3.60
2022-11-17T03:33:10.238Z,3.55
2022-11-17T03:35:40.676Z,3.30
2022-11-17T03:38:14.550Z,2.88
2022-11-17T03:40:46.541Z,3.15
2022-11-17T03:43:17.356Z,3.30
2022-11-17T03:45:54.432Z,3.20
2022-11-17T03:48:35.058Z,2.95
2022-11-17T03:51:10.280Z,3.53
2022-11-17T03:53:37.463Z,3.45
2022-11-17T03:56:10.011Z,3.35
2022-11-17T03:58:46.163Z,3.53
2022-11-17T04:01:13.900Z,2.63
2022-11-17T04:03:40.581Z,3.30
2022-11-17T04:06:07.308Z,2.30
2022-11-17T04:08:33.873Z,2.90
2022-11-17T04:11:18.876Z,3.33
2022-11-17T04:14:03.771Z,2.80
2022-11-17T04:16:30.428Z,3.10
2022-11-17T04:18:58.880Z,3.83
2022-11-17T04:21:26.102Z,3.17
2022-11-17T04:23:52.851Z,3.72
2022-11-17T04:26:38.087Z,3.17
2022-11-17T04:29:04.660Z,4.10
2022-11-17T04:31:31.802Z,3.40
2022-11-17T04:33:59.877Z,3.97
2022-11-17T04:36:35.620Z,4.30
2022-11-17T04:39:02.576Z,3.92
2022-11-17T04:41:49.138Z,3.78
2022-11-17T04:44:17.619Z,3.40
2022-11-17T04:46:46.138Z,3.40
2022-11-17T04:49:14.178Z,3.60
2022-11-17T04:51:40.841Z,3.25
2022-11-17T04:54:09.255Z,2.75
2022-11-17T04:56:36.324Z,3.05
2022-11-17T04:59:03.007Z,2.78
2022-11-17T05:01:29.629Z,2.63
2022-11-17T05:04:05.274Z,2.50
2022-11-17T05:06:40.521Z,2.90
2022-11-17T05:09:10.490Z,3.08
2022-11-17T05:11:55.601Z,3.00
2022-11-17T05:14:23.748Z,3.00
2022-11-17T05:17:10.541Z,3.05
2022-11-17T05:19:45.821Z,2.97
2022-11-17T05:22:36.950Z,2.55
2022-11-17T05:25:05.018Z,2.30
2022-11-17T05:27:31.760Z,2.80
2022-11-17T05:29:58.382Z,2.75
2022-11-17T05:32:25.050Z,2.90
2022-11-17T05:34:51.703Z,2.90
2022-11-17T05:37:18.385Z,3.03
2022-11-17T05:39:45.006Z,3.22
2022-11-17T05:42:11.702Z,4.18
2022-11-17T05:44:40.019Z,3.92
2022-11-17T05:47:06.607Z,3.78
2022-11-17T05:49:33.178Z,2.80
2022-11-17T05:51:59.808Z,3.70
2022-11-17T05:54:27.043Z,3.45
2022-11-17T05:57:00.152Z,4.80
2022-11-17T05:59:31.897Z,4.55
2022-11-17T06:02:18.987Z,3.85
2022-11-17T06:04:46.418Z,4.70
2022-11-17T06:07:13.351Z,4.93
2022-11-17T06:09:42.105Z,4.20
2022-11-17T06:12:09.259Z,4.20
2022-11-17T06:14:37.660Z,4.05
2022-11-17T06:17:11.084Z,3.83
2022-11-17T06:19:44.324Z,4.15
2022-11-17T06:24:42.865Z,4.18
2022-11-17T06:27:14.204Z,3.75
2022-11-17T06:29:44.671Z,4.40
2022-11-17T06:32:14.297Z,4.03
2022-11-17T06:34:42.528Z,4.90
2022-11-17T06:37:09.226Z,5.00
2022-11-17T06:39:35.802Z,5.75
2022-11-17T06:42:02.373Z,7.40
2022-11-17T06:44:28.948Z,7.45
2022-11-17T06:46:55.525Z,7.75
2022-11-17T06:49:22.082Z,7.60
2022-11-17T06:51:48.686Z,8.30
2022-11-17T06:54:15.299Z,6.32
2022-11-17T06:56:42.556Z,8.13
2022-11-17T06:59:09.165Z,7.95
2022-11-17T07:01:37.642Z,7.30
2022-11-17T07:04:04.374Z,7.53
2022-11-17T07:06:31.948Z,9.52
2022-11-17T07:08:58.555Z,8.43
2022-11-17T07:11:25.132Z,7.47
2022-11-17T07:13:51.696Z,7.05
2022-11-17T07:16:24.006Z,9.18
2022-11-17T07:18:52.344Z,8.55
2022-11-17T07:21:19.041Z,8.55
2022-11-17T07:23:46.208Z,7.95
2022-11-17T07:26:14.377Z,8.40
2022-11-17T07:28:41.318Z,8.35
2022-11-17T07:31:09.211Z,9.15
2022-11-17T07:33:36.908Z,7.85
2022-11-17T07:36:09.875Z,8.30
2022-11-17T07:38:38.814Z,8.27
2022-11-17T07:41:07.513Z,10.27
2022-11-17T07:43:35.708Z,9.50
2022-11-17T07:46:06.853Z,9.27
2022-11-17T07:48:33.940Z,9.00
2022-11-17T07:51:02.237Z,9.07
2022-11-17T07:53:29.264Z,8.90
2022-11-17T07:55:56.249Z,9.55
2022-11-17T07:58:25.469Z,11.88
2022-11-17T08:00:52.172Z,10.60
2022-11-17T08:03:18.887Z,11.38
2022-11-17T08:05:45.569Z,11.05
2022-11-17T08:08:13.624Z,11.20
2022-11-17T08:10:40.445Z,10.27
2022-11-17T08:13:07.776Z,11.57
2022-11-17T08:15:35.162Z,12.57
2022-11-17T08:18:02.042Z,11.27
2022-11-17T08:20:29.533Z,11.23
2022-11-17T08:22:56.390Z,12.02
2022-11-17T08:25:25.285Z,10.80
2022-11-17T08:27:55.456Z,12.18
2022-11-17T08:30:22.679Z,12.82
2022-11-17T08:32:52.119Z,14.63
2022-11-17T08:35:21.750Z,13.52
2022-11-17T08:37:48.524Z,12.88
2022-11-17T08:40:16.048Z,15.35
2022-11-17T08:42:42.676Z,14.27
2022-11-17T08:45:10.710Z,15.85
2022-11-17T08:47:38.191Z,13.75
2022-11-17T08:50:06.957Z,13.55
2022-11-17T08:52:33.694Z,13.68
2022-11-17T08:55:00.585Z,13.50
2022-11-17T08:57:29.945Z,11.77
2022-11-17T08:59:56.678Z,10.95
2022-11-17T09:02:23.397Z,10.70
2022-11-17T09:04:50.702Z,11.75
2022-11-17T09:07:17.915Z,12.82
2022-11-17T09:09:46.241Z,11.20
2022-11-17T09:12:12.920Z,13.75
2022-11-17T09:14:39.537Z,11.95
2022-11-17T09:17:06.745Z,11.20
2022-11-17T09:19:33.679Z,10.98
2022-11-17T09:22:00.271Z,9.43
2022-11-17T09:24:26.949Z,8.30
2022-11-17T09:26:54.973Z,9.43
2022-11-17T09:29:21.905Z,8.25
2022-11-17T09:31:48.743Z,5.88
2022-11-17T09:34:16.480Z,10.63
2022-11-17T09:36:43.161Z,8.20
2022-11-17T09:39:09.769Z,7.97
2022-11-17T09:41:46.079Z,8.20
2022-11-17T09:44:12.875Z,8.50
2022-11-17T09:47:02.954Z,9.13
2022-11-17T09:49:40.955Z,9.57
2022-11-17T09:52:31.166Z,8.35
2022-11-17T09:55:34.204Z,7.80
2022-11-17T09:58:30.379Z,8.88
2022-11-17T10:00:57.534Z,7.38
2022-11-17T10:03:29.625Z,8.57
2022-11-17T10:05:58.247Z,7.90
2022-11-17T10:08:40.535Z,8.13
2022-11-17T10:11:34.263Z,6.47
2022-11-17T10:16:50.435Z,5.75
2022-11-17T10:19:21.314Z,5.80
2022-11-17T10:21:54.676Z,6.32
2022-11-17T10:24:39.128Z,6.18
2022-11-17T10:27:18.974Z,8.25
2022-11-17T10:30:20.096Z,10.30
2022-11-17T10:32:58.040Z,10.52
2022-11-17T10:35:35.635Z,10.60
2022-11-17T10:38:08.091Z,11.40
2022-11-17T10:40:40.876Z,10.38
2022-11-17T10:43:13.372Z,10.85
2022-11-17T10:45:48.415Z,8.90
2022-11-17T10:48:34.760Z,8.70
2022-11-17T10:51:03.944Z,9.70
2022-11-17T10:53:46.219Z,9.80
2022-11-17T10:56:17.087Z,8.88
2022-11-17T10:59:07.996Z,8.88
2022-11-17T11:01:37.186Z,8.57
2022-11-17T11:04:06.674Z,9.60
2022-11-17T11:06:35.149Z,8.88
2022-11-17T11:09:13.636Z,8.10
2022-11-17T11:11:52.055Z,9.73
2022-11-17T11:14:24.890Z,8.30
2022-11-17T11:16:51.722Z,8.88
2022-11-17T11:19:20.162Z,8.18
2022-11-17T11:22:21.531Z,7.95
2022-11-17T11:25:04.509Z,8.10
2022-11-17T11:28:08.726Z,8.32
2022-11-17T11:30:47.470Z,7.93
2022-11-17T11:33:33.320Z,8.30
2022-11-17T11:36:18.834Z,8.18
2022-11-17T11:38:51.124Z,7.72
2022-11-17T11:41:36.007Z,7.83
2022-11-17T11:44:14.787Z,7.22
2022-11-17T11:46:54.402Z,7.15
2022-11-17T11:49:36.776Z,8.25
2022-11-17T11:52:10.697Z,8.60
2022-11-17T11:54:50.570Z,7.60
2022-11-17T11:57:24.725Z,7.93
2022-11-17T12:00:05.005Z,7.35
2022-11-17T12:02:37.656Z,7.65
2022-11-17T12:05:25.370Z,7.78
2022-11-17T12:07:51.881Z,7.50
2022-11-17T12:10:48.484Z,7.03
2022-11-17T12:13:18.349Z,6.95
2022-11-17T12:15:45.192Z,7.78
2022-11-17T12:18:30.264Z,7.47
2022-11-17T12:21:13.896Z,7.88
2022-11-17T12:24:03.512Z,7.60
2022-11-17T12:26:32.760Z,7.22
2022-11-17T12:29:25.046Z,7.57
2022-11-17T12:31:54.356Z,6.70
2022-11-17T12:34:23.839Z,7.10
2022-11-17T12:37:16.693Z,7.30
2022-11-17T12:40:08.874Z,7.27
2022-11-17T12:42:36.919Z,6.63
2022-11-17T12:45:12.856Z,6.43
2022-11-17T12:47:54.807Z,6.80
2022-11-17T12:50:53.782Z,6.30
2022-11-17T12:53:25.444Z,6.88
2022-11-17T12:55:54.664Z,6.05
2022-11-17T12:58:33.393Z,6.03
2022-11-17T13:01:03.064Z,5.43
2022-11-17T13:03:52.768Z,5.63
2022-11-17T13:06:34.833Z,4.50
2022-11-17T13:09:12.442Z,6.15
2022-11-17T13:11:39.161Z,5.28
2022-11-17T13:14:11.026Z,5.95
2022-11-17T13:16:47.145Z,4.95
2022-11-17T13:19:32.784Z,4.57
2022-11-17T13:22:06.804Z,5.10
2022-11-17T13:24:36.572Z,4.40
2022-11-17T13:27:23.891Z,4.47
2022-11-17T13:29:51.833Z,4.60
2022-11-17T13:32:21.329Z,4.40
2022-11-17T13:34:57.125Z,5.00
2022-11-17T13:37:26.864Z,4.38
2022-11-17T13:39:55.300Z,4.30
2022-11-17T13:42:24.912Z,4.65
2022-11-17T13:44:54.829Z,4.30
2022-11-17T13:47:28.469Z,4.40
2022-11-17T13:49:55.092Z,4.68
2022-11-17T13:52:43.615Z,4.68
2022-11-17T13:55:19.895Z,10.45
2022-11-17T14:00:56.721Z,5.47
2022-11-17T14:03:43.845Z,6.45
2022-11-17T14:06:12.615Z,9.82
2022-11-17T14:08:41.184Z,7.07
2022-11-17T14:11:15.625Z,4.70
2022-11-17T14:13:59.063Z,4.97
2022-11-17T14:19:21.425Z,5.13
2022-11-17T14:22:09.486Z,4.95
2022-11-17T14:24:37.167Z,4.57
2022-11-17T14:27:13.365Z,4.25
2022-11-17T14:29:39.928Z,5.72
2022-11-17T14:32:06.512Z,5.82
2022-11-17T14:34:33.099Z,7.38
2022-11-17T14:37:00.910Z,8.10
2022-11-17T14:39:27.499Z,8.73
2022-11-17T14:41:54.180Z,10.75
2022-11-17T14:44:21.910Z,12.05
2022-11-17T14:46:48.544Z,13.40
2022-11-17T14:49:15.377Z,15.07
2022-11-17T14:51:42.190Z,11.77
2022-11-17T14:54:08.825Z,13.27
2022-11-17T14:56:35.402Z,13.02
2022-11-17T14:59:02.282Z,12.50
2022-11-17T15:01:34.744Z,13.35
2022-11-17T15:04:20.605Z,14.23
2022-11-17T15:06:47.688Z,13.65
2022-11-17T15:09:16.480Z,13.18
2022-11-17T15:11:43.080Z,12.90
2022-11-17T15:14:10.881Z,12.15
2022-11-17T15:16:37.519Z,11.68
2022-11-17T15:19:04.133Z,13.52
2022-11-17T15:21:30.766Z,13.38
2022-11-17T15:23:57.313Z,14.02
2022-11-17T15:26:23.996Z,12.00
2022-11-17T15:28:50.706Z,12.88
2022-11-17T15:31:19.339Z,14.52
2022-11-17T15:33:47.505Z,16.65
2022-11-17T15:36:17.473Z,16.55
2022-11-17T15:38:44.380Z,13.65
2022-11-17T15:41:12.763Z,12.88
2022-11-17T15:43:41.201Z,10.68
2022-11-17T15:46:12.389Z,11.48
2022-11-17T15:48:43.172Z,11.40
2022-11-17T15:51:13.057Z,11.45
2022-11-17T15:53:40.388Z,13.40
2022-11-17T15:56:09.871Z,13.10
2022-11-17T15:58:36.673Z,18.38
2022-11-17T16:01:16.769Z,14.60
2022-11-17T16:03:45.255Z,11.90
2022-11-17T16:06:13.039Z,11.95
2022-11-17T16:08:40.133Z,12.20
2022-11-17T16:11:07.153Z,11.38
2022-11-17T16:13:33.827Z,10.95
2022-11-17T16:16:00.682Z,11.95
2022-11-17T16:18:27.352Z,10.82
2022-11-17T16:20:54.059Z,11.68
2022-11-17T16:23:21.008Z,11.25
2022-11-17T16:25:48.762Z,14.07
2022-11-17T16:28:16.924Z,12.60
2022-11-17T16:30:43.943Z,13.85
2022-11-17T16:33:13.192Z,12.25
2022-11-17T16:35:41.224Z,13.13
2022-11-17T16:38:12.748Z,10.85
2022-11-17T16:40:39.941Z,9.50
2022-11-17T16:43:06.661Z,9.02
2022-11-17T16:45:43.056Z,9.50
2022-11-17T16:48:09.814Z,10.93
2022-11-17T16:50:37.570Z,9.82
2022-11-17T16:53:04.755Z,10.35
2022-11-17T16:55:35.576Z,8.88
2022-11-17T16:58:03.657Z,8.68
2022-11-17T17:00:30.543Z,9.95
2022-11-17T17:02:57.305Z,8.38
2022-11-17T17:05:25.264Z,9.95
2022-11-17T17:07:52.006Z,9.50
2022-11-17T17:10:18.653Z,9.32
2022-11-17T17:12:45.264Z,9.38
2022-11-17T17:15:12.140Z,9.32
2022-11-17T17:17:38.797Z,8.75
2022-11-17T17:20:06.347Z,8.82
2022-11-17T17:22:32.905Z,8.35
2022-11-17T17:24:59.492Z,9.18
2022-11-17T17:27:26.068Z,8.30
2022-11-17T17:29:56.984Z,9.05
2022-11-17T17:32:23.785Z,9.30
2022-11-17T17:34:50.364Z,7.88
2022-11-17T17:37:17.097Z,7.90
2022-11-17T17:39:43.754Z,9.60
2022-11-17T17:42:10.322Z,9.95
2022-11-17T17:44:36.917Z,10.13
2022-11-17T17:47:03.731Z,10.27
2022-11-17T17:49:30.320Z,8.65
2022-11-17T17:51:56.913Z,8.27
2022-11-17T17:54:24.214Z,7.75
2022-11-17T17:56:50.864Z,7.20
2022-11-17T17:59:18.012Z,8.68
2022-11-17T18:01:46.286Z,8.60
2022-11-17T18:04:16.121Z,9.80
2022-11-17T18:06:46.140Z,7.10
2022-11-17T18:09:14.546Z,9.65
2022-11-17T18:11:49.549Z,8.30
2022-11-17T18:14:20.402Z,7.75
2022-11-17T18:16:47.966Z,7.20
2022-11-17T18:19:16.127Z,6.10
2022-11-17T18:21:43.431Z,7.70
2022-11-17T18:24:11.703Z,6.93
2022-11-17T18:26:40.923Z,5.80
2022-11-17T18:29:12.336Z,8.45
2022-11-17T18:31:39.221Z,7.55
2022-11-17T18:34:15.179Z,7.75
2022-11-17T18:36:42.014Z,6.65
2022-11-17T18:39:09.454Z,7.00
2022-11-17T18:41:36.830Z,6.57
2022-11-17T18:44:03.894Z,8.65
2022-11-17T18:46:32.282Z,7.50
2022-11-17T18:48:59.823Z,6.90
2022-11-17T18:51:29.369Z,7.47
2022-11-17T18:53:58.292Z,7.70
2022-11-17T18:56:27.591Z,6.10
2022-11-17T18:58:54.281Z,5.82
2022-11-17T19:01:22.933Z,8.40
2022-11-17T19:03:54.189Z,9.30
2022-11-17T19:06:23.425Z,10.77
2022-11-17T19:08:50.797Z,5.53
2022-11-17T19:11:19.513Z,4.50
2022-11-17T19:13:46.668Z,4.28
2022-11-17T19:16:17.268Z,3.85
2022-11-17T19:18:45.289Z,3.45
2022-11-17T19:21:14.377Z,5.00
2022-11-17T19:23:48.025Z,5.28
2022-11-17T19:26:26.525Z,5.63
2022-11-17T19:28:57.388Z,4.70
2022-11-17T19:31:24.438Z,4.45
2022-11-17T19:33:51.643Z,4.82
2022-11-17T19:36:23.793Z,4.43
2022-11-17T19:38:52.323Z,3.75
2022-11-17T19:41:21.420Z,3.28
2022-11-17T19:43:48.524Z,4.00
2022-11-17T19:46:16.974Z,6.70
2022-11-17T19:48:44.513Z,3.63
2022-11-17T19:51:31.341Z,4.03
2022-11-17T19:54:01.392Z,3.13
2022-11-17T19:56:28.528Z,3.58
2022-11-17T19:58:55.661Z,3.22
2022-11-17T20:01:29.884Z,4.97
2022-11-17T20:03:57.654Z,5.32
2022-11-17T20:06:27.768Z,4.25
2022-11-17T20:08:55.564Z,3.58
2022-11-17T20:11:24.436Z,3.58
2022-11-17T20:13:51.099Z,3.47
2022-11-17T20:16:20.636Z,3.50
2022-11-17T20:18:52.261Z,3.20
2022-11-17T20:21:19.178Z,3.95
2022-11-17T20:23:46.177Z,3.70
2022-11-17T20:26:14.130Z,4.22
2022-11-17T20:28:41.901Z,3.55
2022-11-17T20:31:20.757Z,4.85
2022-11-17T20:33:48.623Z,4.95
2022-11-17T20:36:20.542Z,5.03
2022-11-17T20:38:55.201Z,4.88
2022-11-17T20:41:23.410Z,4.78
2022-11-17T20:43:52.295Z,6.28
2022-11-17T20:46:19.927Z,5.00
2022-11-17T20:48:46.586Z,8.95
2022-11-17T20:51:16.076Z,7.20
2022-11-17T20:53:43.168Z,6.90
2022-11-17T20:56:11.772Z,6.20
2022-11-17T20:58:38.981Z,8.18
2022-11-17T21:01:17.827Z,9.48
2022-11-17T21:03:45.527Z,6.95
2022-11-17T21:06:13.846Z,6.90
2022-11-17T21:08:41.758Z,6.47
2022-11-17T21:11:11.374Z,6.43
2022-11-17T21:13:38.483Z,6.22
2022-11-17T21:16:11.866Z,6.55
2022-11-17T21:18:44.983Z,6.93
2022-11-17T21:21:11.783Z,7.13
2022-11-17T21:23:39.677Z,6.68
2022-11-17T21:26:07.729Z,6.95
2022-11-17T21:28:35.773Z,6.05
2022-11-17T21:31:12.585Z,6.53
2022-11-17T21:33:39.512Z,6.35
2022-11-17T21:36:12.030Z,7.13
2022-11-17T21:38:39.082Z,6.60
2022-11-17T21:41:20.552Z,7.57
2022-11-17T21:43:49.054Z,6.60
2022-11-17T21:46:21.515Z,7.53
2022-11-17T21:48:49.177Z,6.60
2022-11-17T21:51:24.373Z,6.90
2022-11-17T21:53:55.952Z,8.38
2022-11-17T21:56:25.670Z,7.07
2022-11-17T21:59:04.004Z,7.43
2022-11-17T22:01:31.459Z,7.38
2022-11-17T22:03:58.077Z,7.78
2022-11-17T22:06:26.080Z,7.10
2022-11-17T22:08:54.829Z,7.03
2022-11-17T22:11:36.201Z,7.72
2022-11-17T22:14:18.140Z,6.10
2022-11-17T22:16:46.872Z,5.07
2022-11-17T22:19:15.812Z,6.20
2022-11-17T22:21:43.758Z,7.10
2022-11-17T22:24:12.086Z,6.68
2022-11-17T22:26:41.275Z,6.43
2022-11-17T22:29:19.665Z,7.07
2022-11-17T22:31:48.667Z,7.50
2022-11-17T22:34:15.796Z,7.20
2022-11-17T22:36:42.545Z,7.50
2022-11-17T22:39:09.490Z,7.72
2022-11-17T22:41:36.236Z,7.38
2022-11-17T22:44:02.951Z,7.60
2022-11-17T22:46:29.598Z,7.22
2022-11-17T22:48:56.612Z,6.95
2022-11-17T22:51:43.646Z,7.57
2022-11-17T22:54:10.357Z,7.28
2022-11-17T22:56:37.080Z,7.30
2022-11-17T22:59:04.293Z,7.57
2022-11-17T23:01:31.098Z,7.90
2022-11-17T23:03:58.336Z,8.15
2022-11-17T23:06:27.223Z,7.70
2022-11-17T23:08:55.165Z,8.77
2022-11-17T23:11:36.526Z,8.52
2022-11-17T23:14:06.152Z,10.20
2022-11-17T23:16:33.221Z,10.07
2022-11-17T23:19:00.202Z,9.35
2022-11-17T23:21:26.994Z,8.80
2022-11-17T23:23:53.664Z,8.98
2022-11-17T23:26:20.732Z,10.45
2022-11-17T23:28:47.325Z,10.25
2022-11-17T23:31:15.782Z,13.55
2022-11-17T23:33:44.752Z,10.30
2022-11-17T23:36:17.068Z,10.85
2022-11-17T23:38:44.305Z,10.73
2022-11-17T23:41:13.336Z,9.52
2022-11-17T23:43:40.740Z,8.73
2022-11-17T23:46:15.712Z,9.70
2022-11-17T23:48:43.349Z,9.15
2022-11-17T23:51:12.747Z,8.68
2022-11-17T23:53:40.565Z,9.32
2022-11-17T23:56:07.640Z,8.90
2022-11-17T23:58:34.314Z,8.40
